createdAt,value
2023-07-24T00:00:04.737Z,21.12
2023-07-24T00:00:16.733Z,21.12
2023-07-24T00:00:28.777Z,21.11
2023-07-24T00:00:41.567Z,21.11
2023-07-24T00:00:53.629Z,21.12
2023-07-24T00:01:05.765Z,21.12
2023-07-24T00:01:19.051Z,21.12
2023-07-24T00:01:31.108Z,21.13
2023-07-24T00:01:43.334Z,21.12
2023-07-24T00:01:55.326Z,21.10
2023-07-24T00:02:07.588Z,21.11
2023-07-24T00:02:19.547Z,21.12
2023-07-24T00:02:31.603Z,21.14
2023-07-24T00:02:43.633Z,21.14
2023-07-24T00:02:57.114Z,21.15
2023-07-24T00:03:09.332Z,21.17
2023-07-24T00:03:21.417Z,21.14
2023-07-24T00:03:33.448Z,21.15
2023-07-24T00:03:46.239Z,21.12
2023-07-24T00:03:59.895Z,21.12
2023-07-24T00:04:11.867Z,21.12
2023-07-24T00:04:23.847Z,21.13
2023-07-24T00:04:35.926Z,21.14
2023-07-24T00:04:48.275Z,21.14
2023-07-24T00:05:00.268Z,21.12
2023-07-24T00:05:12.394Z,21.10
2023-07-24T00:05:24.350Z,21.11
2023-07-24T00:05:36.400Z,21.11
2023-07-24T00:05:48.438Z,21.10
2023-07-24T00:06:00.623Z,21.10
2023-07-24T00:06:12.761Z,21.09
2023-07-24T00:06:24.881Z,21.12
2023-07-24T00:06:36.968Z,21.11
2023-07-24T00:06:48.976Z,21.11
2023-07-24T00:07:01.817Z,21.10
2023-07-24T00:07:13.788Z,21.11
2023-07-24T00:07:26.150Z,21.12
2023-07-24T00:07:38.154Z,21.09
2023-07-24T00:07:50.134Z,21.09
2023-07-24T00:08:03.050Z,21.06
2023-07-24T00:08:14.999Z,21.06
2023-07-24T00:08:27.289Z,21.04
2023-07-24T00:08:39.529Z,21.05
2023-07-24T00:08:51.553Z,21.07
2023-07-24T00:09:03.574Z,21.02
2023-07-24T00:09:15.967Z,21.02
2023-07-24T00:09:28.038Z,21.00
2023-07-24T00:09:39.990Z,21.01
2023-07-24T00:09:52.026Z,21.01
2023-07-24T00:10:04.722Z,21.01
2023-07-24T00:10:16.734Z,21.00
2023-07-24T00:10:28.716Z,21.03
2023-07-24T00:10:40.731Z,21.04
2023-07-24T00:10:52.731Z,21.03
2023-07-24T00:11:08.622Z,21.02
2023-07-24T00:11:20.603Z,21.04
2023-07-24T00:11:32.931Z,21.04
2023-07-24T00:11:44.861Z,21.04
2023-07-24T00:11:56.871Z,21.04
2023-07-24T00:12:09.085Z,21.05
2023-07-24T00:12:21.098Z,21.07
2023-07-24T00:12:33.140Z,21.10
2023-07-24T00:12:45.134Z,21.11
2023-07-24T00:12:57.090Z,21.12
2023-07-24T00:13:09.758Z,21.13
2023-07-24T00:13:21.788Z,21.13
2023-07-24T00:13:33.759Z,21.12
2023-07-24T00:13:46.021Z,21.11
2023-07-24T00:13:58.030Z,21.08
2023-07-24T00:14:10.030Z,21.07
2023-07-24T00:14:21.997Z,21.06
2023-07-24T00:14:33.974Z,21.06
2023-07-24T00:14:45.923Z,21.00
2023-07-24T00:14:57.863Z,20.95
2023-07-24T00:15:10.216Z,20.91
2023-07-24T00:15:22.381Z,20.91
2023-07-24T00:15:34.431Z,20.90
2023-07-24T00:15:46.384Z,20.91
2023-07-24T00:15:58.633Z,20.91
2023-07-24T00:16:11.275Z,20.88
2023-07-24T00:16:23.279Z,20.88
2023-07-24T00:16:35.298Z,20.85
2023-07-24T00:16:47.267Z,20.87
2023-07-24T00:16:59.304Z,20.89
2023-07-24T00:17:11.325Z,20.89
2023-07-24T00:17:23.465Z,20.88
2023-07-24T00:17:35.567Z,20.89
2023-07-24T00:17:47.545Z,20.88
2023-07-24T00:17:59.694Z,20.88
2023-07-24T00:18:11.749Z,20.88
2023-07-24T00:18:23.861Z,20.89
2023-07-24T00:18:35.962Z,20.90
2023-07-24T00:18:47.939Z,20.89
2023-07-24T00:18:59.956Z,20.90
2023-07-24T00:19:11.980Z,20.81
2023-07-24T00:19:24.024Z,20.80
2023-07-24T00:19:36.106Z,20.77
2023-07-24T00:19:48.134Z,20.71
2023-07-24T00:20:00.188Z,20.69
2023-07-24T00:20:12.739Z,20.66
2023-07-24T00:20:25.738Z,20.67
2023-07-24T00:20:37.691Z,20.68
2023-07-24T00:20:49.659Z,20.69
2023-07-24T00:21:01.658Z,20.66
2023-07-24T00:21:14.521Z,20.69
2023-07-24T00:21:26.521Z,20.71
2023-07-24T00:21:38.468Z,20.72
2023-07-24T00:21:50.414Z,20.72
2023-07-24T00:22:02.718Z,20.73
2023-07-24T00:22:14.660Z,20.74
2023-07-24T00:22:26.604Z,20.76
2023-07-24T00:22:38.637Z,20.77
2023-07-24T00:22:50.739Z,20.77
2023-07-24T00:23:02.706Z,20.75
2023-07-24T00:23:14.716Z,20.78
2023-07-24T00:23:26.789Z,20.78
2023-07-24T00:23:38.861Z,20.77
2023-07-24T00:23:50.809Z,20.79
2023-07-24T00:24:02.779Z,20.77
2023-07-24T00:24:14.791Z,20.74
2023-07-24T00:24:26.834Z,20.74
2023-07-24T00:24:38.831Z,20.77
2023-07-24T00:24:50.993Z,20.78
2023-07-24T00:25:03.069Z,20.79
2023-07-24T00:25:15.000Z,20.81
2023-07-24T00:25:27.077Z,20.83
2023-07-24T00:25:39.002Z,20.82
2023-07-24T00:25:51.023Z,20.83
2023-07-24T00:26:03.026Z,20.84
2023-07-24T00:26:15.019Z,20.84
2023-07-24T00:26:27.267Z,20.83
2023-07-24T00:26:39.380Z,20.81
2023-07-24T00:26:51.314Z,20.82
2023-07-24T00:27:03.919Z,20.81
2023-07-24T00:27:15.853Z,20.81
2023-07-24T00:27:28.655Z,20.78
2023-07-24T00:27:40.650Z,20.77
2023-07-24T00:27:52.800Z,20.77
2023-07-24T00:28:04.803Z,20.79
2023-07-24T00:28:16.804Z,20.79
2023-07-24T00:28:28.790Z,20.80
2023-07-24T00:28:41.129Z,20.81
2023-07-24T00:28:53.091Z,20.82
2023-07-24T00:29:05.046Z,20.83
2023-07-24T00:29:17.075Z,20.83
2023-07-24T00:29:29.027Z,20.82
2023-07-24T00:29:41.048Z,20.83
2023-07-24T00:29:53.056Z,20.84
2023-07-24T00:30:05.603Z,20.83
2023-07-24T00:30:17.576Z,20.83
2023-07-24T00:30:29.629Z,20.84
2023-07-24T00:30:41.607Z,20.84
2023-07-24T00:30:53.611Z,20.84
2023-07-24T00:31:05.611Z,20.88
2023-07-24T00:31:17.588Z,20.89
2023-07-24T00:31:29.561Z,20.87
2023-07-24T00:31:41.509Z,20.89
2023-07-24T00:31:53.531Z,20.88
2023-07-24T00:32:06.057Z,20.90
2023-07-24T00:32:18.016Z,20.91
2023-07-24T00:32:30.053Z,20.90
2023-07-24T00:32:42.201Z,20.88
2023-07-24T00:32:54.311Z,20.89
2023-07-24T00:33:06.321Z,20.88
2023-07-24T00:33:18.312Z,20.88
2023-07-24T00:33:30.320Z,20.86
2023-07-24T00:33:42.298Z,20.83
2023-07-24T00:33:54.267Z,20.78
2023-07-24T00:34:06.250Z,20.80
2023-07-24T00:34:18.276Z,20.78
2023-07-24T00:34:30.225Z,20.77
2023-07-24T00:34:42.240Z,20.73
2023-07-24T00:34:54.260Z,20.72
2023-07-24T00:35:06.940Z,20.72
2023-07-24T00:35:18.939Z,20.75
2023-07-24T00:35:30.996Z,20.74
2023-07-24T00:35:42.956Z,20.74
2023-07-24T00:35:58.664Z,20.73
2023-07-24T00:36:10.642Z,20.74
2023-07-24T00:36:22.626Z,20.74
2023-07-24T00:36:34.608Z,20.74
2023-07-24T00:36:46.599Z,20.73
2023-07-24T00:36:58.561Z,20.72
2023-07-24T00:37:10.613Z,20.73
2023-07-24T00:37:22.653Z,20.74
2023-07-24T00:37:34.692Z,20.74
2023-07-24T00:37:46.638Z,20.77
2023-07-24T00:37:58.589Z,20.77
2023-07-24T00:38:10.552Z,20.79
2023-07-24T00:38:22.530Z,20.79
2023-07-24T00:38:34.526Z,20.77
2023-07-24T00:38:46.490Z,20.74
2023-07-24T00:38:58.464Z,20.70
2023-07-24T00:39:10.482Z,20.69
2023-07-24T00:39:22.534Z,20.69
2023-07-24T00:39:34.490Z,20.68
2023-07-24T00:39:46.464Z,20.64
2023-07-24T00:39:58.500Z,20.59
2023-07-24T00:40:10.849Z,20.57
2023-07-24T00:40:22.880Z,20.56
2023-07-24T00:40:34.869Z,20.55
2023-07-24T00:40:46.841Z,20.56
2023-07-24T00:40:59.146Z,20.57
2023-07-24T00:41:11.161Z,20.56
2023-07-24T00:41:23.300Z,20.56
2023-07-24T00:41:35.289Z,20.55
2023-07-24T00:41:47.351Z,20.56
2023-07-24T00:41:59.349Z,20.56
2023-07-24T00:42:11.393Z,20.55
2023-07-24T00:42:23.663Z,20.55
2023-07-24T00:42:35.647Z,20.55
2023-07-24T00:42:49.362Z,20.54
2023-07-24T00:43:01.327Z,20.54
2023-07-24T00:43:13.271Z,20.53
2023-07-24T00:43:25.202Z,20.53
2023-07-24T00:43:37.195Z,20.52
2023-07-24T00:43:49.181Z,20.50
2023-07-24T00:44:01.260Z,20.51
2023-07-24T00:44:13.340Z,20.49
2023-07-24T00:44:25.406Z,20.48
2023-07-24T00:44:38.673Z,20.48
2023-07-24T00:44:50.682Z,20.46
2023-07-24T00:45:04.231Z,20.47
2023-07-24T00:45:17.623Z,20.47
2023-07-24T00:45:29.742Z,20.47
2023-07-24T00:45:41.902Z,20.48
2023-07-24T00:45:55.674Z,20.49
2023-07-24T00:46:07.781Z,20.50
2023-07-24T00:46:19.995Z,20.50
2023-07-24T00:46:34.199Z,20.50
2023-07-24T00:46:46.948Z,20.48
2023-07-24T00:46:59.244Z,20.45
2023-07-24T00:47:11.399Z,20.45
2023-07-24T00:47:23.880Z,20.42
2023-07-24T00:47:35.956Z,20.42
2023-07-24T00:47:48.182Z,20.41
2023-07-24T00:48:01.453Z,20.43
2023-07-24T00:48:13.725Z,20.42
2023-07-24T00:48:25.717Z,20.43
2023-07-24T00:48:39.037Z,20.42
2023-07-24T00:48:51.756Z,20.45
2023-07-24T00:49:05.655Z,20.46
2023-07-24T00:49:18.529Z,20.45
2023-07-24T00:49:30.636Z,20.44
2023-07-24T00:49:42.798Z,20.41
2023-07-24T00:49:56.110Z,20.42
2023-07-24T00:50:09.589Z,20.44
2023-07-24T00:50:22.448Z,20.43
2023-07-24T00:50:34.904Z,20.44
2023-07-24T00:50:47.058Z,20.45
2023-07-24T00:50:59.141Z,20.46
2023-07-24T00:51:11.477Z,20.47
2023-07-24T00:51:23.616Z,20.48
2023-07-24T00:51:35.923Z,20.48
2023-07-24T00:51:48.194Z,20.52
2023-07-24T00:52:00.302Z,20.50
2023-07-24T00:52:13.409Z,20.49
2023-07-24T00:52:26.108Z,20.47
2023-07-24T00:52:38.597Z,20.46
2023-07-24T00:52:50.588Z,20.47
2023-07-24T00:53:02.896Z,20.47
2023-07-24T00:53:17.596Z,20.49
2023-07-24T00:53:29.666Z,20.49
2023-07-24T00:53:41.718Z,20.49
2023-07-24T00:53:55.152Z,20.51
2023-07-24T00:54:08.207Z,20.49
2023-07-24T00:54:22.802Z,20.51
2023-07-24T00:54:35.518Z,20.51
2023-07-24T00:54:47.805Z,20.49
2023-07-24T00:55:00.491Z,20.52
2023-07-24T00:55:14.299Z,20.51
2023-07-24T00:55:26.717Z,20.52
2023-07-24T00:55:39.960Z,20.53
2023-07-24T00:55:52.028Z,20.53
2023-07-24T00:56:04.314Z,20.51
2023-07-24T00:56:16.528Z,20.50
2023-07-24T00:56:30.052Z,20.51
2023-07-24T00:56:42.197Z,20.50
2023-07-24T00:56:54.743Z,20.50
2023-07-24T00:57:07.156Z,20.52
2023-07-24T00:57:19.228Z,20.51
2023-07-24T00:57:31.554Z,20.52
2023-07-24T00:57:44.619Z,20.49
2023-07-24T00:57:59.071Z,20.46
2023-07-24T00:58:12.423Z,20.47
2023-07-24T00:58:24.984Z,20.46
2023-07-24T00:58:38.556Z,20.47
2023-07-24T00:58:50.693Z,20.48
2023-07-24T00:59:02.822Z,20.50
2023-07-24T00:59:16.054Z,20.50
2023-07-24T00:59:28.292Z,20.52
2023-07-24T00:59:43.046Z,20.52
2023-07-24T00:59:55.592Z,20.52
2023-07-24T01:00:08.476Z,20.51
2023-07-24T01:00:20.704Z,20.52
2023-07-24T01:00:33.320Z,20.50
2023-07-24T01:00:45.694Z,20.51
2023-07-24T01:00:57.947Z,20.51
2023-07-24T01:01:11.982Z,20.44
2023-07-24T01:01:25.018Z,20.46
2023-07-24T01:01:38.799Z,20.46
2023-07-24T01:01:51.193Z,20.46
2023-07-24T01:02:03.437Z,20.46
2023-07-24T01:02:15.500Z,20.46
2023-07-24T01:02:28.465Z,20.45
2023-07-24T01:02:40.533Z,20.45
2023-07-24T01:02:52.870Z,20.46
2023-07-24T01:03:05.202Z,20.47
2023-07-24T01:03:17.368Z,20.47
2023-07-24T01:03:35.946Z,20.47
2023-07-24T01:03:48.048Z,20.45
2023-07-24T01:04:00.206Z,20.45
2023-07-24T01:04:12.213Z,20.44
2023-07-24T01:04:24.342Z,20.46
2023-07-24T01:04:36.403Z,20.48
2023-07-24T01:04:48.631Z,20.50
2023-07-24T01:05:00.766Z,20.50
2023-07-24T01:05:16.027Z,20.50
2023-07-24T01:05:28.442Z,20.48
2023-07-24T01:05:41.456Z,20.45
2023-07-24T01:05:55.812Z,20.43
2023-07-24T01:06:07.789Z,20.42
2023-07-24T01:06:19.983Z,20.40
2023-07-24T01:06:32.419Z,20.33
2023-07-24T01:06:44.901Z,20.33
2023-07-24T01:06:56.954Z,20.33
2023-07-24T01:07:09.738Z,20.34
2023-07-24T01:07:21.772Z,20.32
2023-07-24T01:07:33.869Z,20.32
2023-07-24T01:07:45.935Z,20.32
2023-07-24T01:07:58.392Z,20.27
2023-07-24T01:08:10.396Z,20.24
2023-07-24T01:08:22.395Z,20.24
2023-07-24T01:08:34.581Z,20.24
2023-07-24T01:08:46.565Z,20.27
2023-07-24T01:08:58.541Z,20.30
2023-07-24T01:09:11.576Z,20.30
2023-07-24T01:09:23.656Z,20.33
2023-07-24T01:09:35.618Z,20.33
2023-07-24T01:09:48.507Z,20.30
2023-07-24T01:10:00.708Z,20.31
2023-07-24T01:10:12.750Z,20.31
2023-07-24T01:10:24.956Z,20.33
2023-07-24T01:10:36.938Z,20.34
2023-07-24T01:10:48.928Z,20.31
2023-07-24T01:11:09.040Z,20.32
2023-07-24T01:11:48.594Z,20.32
2023-07-24T01:12:09.997Z,20.29
2023-07-24T01:12:36.408Z,20.30
2023-07-24T01:12:48.320Z,20.35
2023-07-24T01:13:15.237Z,20.34
2023-07-24T01:13:33.103Z,20.28
2023-07-24T01:13:57.388Z,20.26
2023-07-24T01:14:27.934Z,20.25
2023-07-24T01:15:38.816Z,20.21
2023-07-24T01:16:15.464Z,20.25
2023-07-24T01:16:34.319Z,20.25
2023-07-24T01:16:48.615Z,20.24
2023-07-24T01:17:02.157Z,20.23
2023-07-24T01:17:21.577Z,20.24
2023-07-24T01:17:40.118Z,20.30
2023-07-24T01:18:00.747Z,20.29
2023-07-24T01:18:14.737Z,20.30
2023-07-24T01:18:29.182Z,20.28
2023-07-24T01:18:43.967Z,20.28
2023-07-24T01:18:58.002Z,20.32
2023-07-24T01:19:40.761Z,20.27
2023-07-24T01:19:59.228Z,20.22
2023-07-24T01:20:13.959Z,20.24
2023-07-24T01:20:29.779Z,20.18
2023-07-24T01:20:48.365Z,20.19
2023-07-24T01:21:01.931Z,20.21
2023-07-24T01:21:17.609Z,20.21
2023-07-24T01:21:39.673Z,20.21
2023-07-24T01:22:04.535Z,20.24
2023-07-24T01:22:28.436Z,20.27
2023-07-24T01:22:46.089Z,20.27
2023-07-24T01:23:06.880Z,20.29
2023-07-24T01:23:34.380Z,20.26
2023-07-24T01:23:47.197Z,20.25
2023-07-24T01:24:15.807Z,20.24
2023-07-24T01:24:57.195Z,20.21
2023-07-24T01:25:15.069Z,20.21
2023-07-24T01:25:37.870Z,20.19
2023-07-24T01:26:00.787Z,20.13
2023-07-24T01:26:13.166Z,20.15
2023-07-24T01:26:26.456Z,20.12
2023-07-24T01:26:38.980Z,20.09
2023-07-24T01:26:51.560Z,20.09
2023-07-24T01:27:03.995Z,20.10
2023-07-24T01:27:25.036Z,20.08
2023-07-24T01:27:37.017Z,20.09
2023-07-24T01:27:49.018Z,20.11
2023-07-24T01:28:01.020Z,20.11
2023-07-24T01:28:12.982Z,20.11
2023-07-24T01:28:28.219Z,20.13
2023-07-24T01:28:40.857Z,20.17
2023-07-24T01:28:53.024Z,20.13
2023-07-24T01:29:04.961Z,20.16
2023-07-24T01:29:16.951Z,20.17
2023-07-24T01:29:29.048Z,20.19
2023-07-24T01:29:41.025Z,20.16
2023-07-24T01:29:53.095Z,20.18
2023-07-24T01:30:05.581Z,20.21
2023-07-24T01:30:19.608Z,20.21
2023-07-24T01:30:31.660Z,20.21
2023-07-24T01:30:43.678Z,20.22
2023-07-24T01:30:56.485Z,20.22
2023-07-24T01:31:08.524Z,20.20
2023-07-24T01:31:20.522Z,20.21
2023-07-24T01:31:32.510Z,20.22
2023-07-24T01:31:44.518Z,20.22
2023-07-24T01:31:56.952Z,20.19
2023-07-24T01:32:09.211Z,20.17
2023-07-24T01:32:21.760Z,20.18
2023-07-24T01:32:33.908Z,20.16
2023-07-24T01:32:46.411Z,20.14
2023-07-24T01:32:58.569Z,20.16
2023-07-24T01:33:10.714Z,20.15
2023-07-24T01:33:23.444Z,20.13
2023-07-24T01:33:36.626Z,20.13
2023-07-24T01:33:49.146Z,20.17
2023-07-24T01:34:01.157Z,20.20
2023-07-24T01:34:13.346Z,20.20
2023-07-24T01:34:25.465Z,20.20
2023-07-24T01:34:37.418Z,20.20
2023-07-24T01:34:50.159Z,20.21
2023-07-24T01:35:02.182Z,20.18
2023-07-24T01:35:14.388Z,20.16
2023-07-24T01:35:28.121Z,20.15
2023-07-24T01:35:40.484Z,20.15
2023-07-24T01:35:56.498Z,20.17
2023-07-24T01:36:08.853Z,20.19
2023-07-24T01:36:21.000Z,20.18
2023-07-24T01:36:33.217Z,20.19
2023-07-24T01:36:45.475Z,20.21
2023-07-24T01:36:57.815Z,20.19
2023-07-24T01:37:11.967Z,20.20
2023-07-24T01:37:26.603Z,20.20
2023-07-24T01:37:41.380Z,20.20
2023-07-24T01:37:53.578Z,20.22
2023-07-24T01:38:05.851Z,20.22
2023-07-24T01:38:18.471Z,20.25
2023-07-24T01:38:32.775Z,20.24
2023-07-24T01:38:45.048Z,20.24
2023-07-24T01:38:57.693Z,20.24
2023-07-24T01:39:11.041Z,20.26
2023-07-24T01:39:23.380Z,20.27
2023-07-24T01:39:36.220Z,20.27
2023-07-24T01:39:49.353Z,20.27
2023-07-24T01:40:01.790Z,20.25
2023-07-24T01:40:14.626Z,20.25
2023-07-24T01:40:26.676Z,20.24
2023-07-24T01:40:40.957Z,20.23
2023-07-24T01:40:57.196Z,20.26
2023-07-24T01:41:09.484Z,20.25
2023-07-24T01:41:21.692Z,20.22
2023-07-24T01:41:33.745Z,20.22
2023-07-24T01:41:45.909Z,20.25
2023-07-24T01:41:58.320Z,20.22
2023-07-24T01:42:10.673Z,20.23
2023-07-24T01:42:22.621Z,20.22
2023-07-24T01:42:35.413Z,20.15
2023-07-24T01:42:47.490Z,20.06
2023-07-24T01:43:00.668Z,20.02
2023-07-24T01:43:13.015Z,19.99
2023-07-24T01:43:28.093Z,19.99
2023-07-24T01:43:40.091Z,20.00
2023-07-24T01:43:52.226Z,20.03
2023-07-24T01:44:04.307Z,20.04
2023-07-24T01:44:16.321Z,20.00
2023-07-24T01:44:28.341Z,20.03
2023-07-24T01:44:40.346Z,20.01
2023-07-24T01:44:56.262Z,19.99
2023-07-24T01:45:09.321Z,19.97
2023-07-24T01:45:21.391Z,19.99
2023-07-24T01:45:33.480Z,19.99
2023-07-24T01:45:45.572Z,19.95
2023-07-24T01:45:57.683Z,19.93
2023-07-24T01:46:09.982Z,19.90
2023-07-24T01:46:22.058Z,19.85
2023-07-24T01:46:34.178Z,19.87
2023-07-24T01:46:46.538Z,19.83
2023-07-24T01:46:58.562Z,19.71
2023-07-24T01:47:10.563Z,19.65
2023-07-24T01:47:23.270Z,19.59
2023-07-24T01:47:35.499Z,19.49
2023-07-24T01:47:47.526Z,19.43
2023-07-24T01:48:00.994Z,19.38
2023-07-24T01:48:13.051Z,19.32
2023-07-24T01:48:25.005Z,19.24
2023-07-24T01:48:36.931Z,19.23
2023-07-24T01:48:49.360Z,19.28
2023-07-24T01:49:01.332Z,19.33
2023-07-24T01:49:13.296Z,19.38
2023-07-24T01:49:25.289Z,19.42
2023-07-24T01:49:37.453Z,19.48
2023-07-24T01:49:49.777Z,19.51
2023-07-24T01:50:01.986Z,19.53
2023-07-24T01:50:14.160Z,19.58
2023-07-24T01:50:26.330Z,19.60
2023-07-24T01:50:38.380Z,19.60
2023-07-24T01:50:51.152Z,19.62
2023-07-24T01:51:03.293Z,19.60
2023-07-24T01:51:15.372Z,19.60
2023-07-24T01:51:27.314Z,19.61
2023-07-24T01:51:39.236Z,19.61
2023-07-24T01:51:51.184Z,19.64
2023-07-24T01:52:03.374Z,19.67
2023-07-24T01:52:15.493Z,19.68
2023-07-24T01:52:27.683Z,19.71
2023-07-24T01:52:39.622Z,19.72
2023-07-24T01:52:51.784Z,19.74
2023-07-24T01:53:03.868Z,19.75
2023-07-24T01:53:15.911Z,19.70
2023-07-24T01:53:27.890Z,19.46
2023-07-24T01:53:39.974Z,19.35
2023-07-24T01:53:51.928Z,19.26
2023-07-24T01:54:03.922Z,19.18
2023-07-24T01:54:15.874Z,19.22
2023-07-24T01:54:27.812Z,19.25
2023-07-24T01:54:39.993Z,19.29
2023-07-24T01:54:51.966Z,19.32
2023-07-24T01:55:04.239Z,19.36
2023-07-24T01:55:16.317Z,19.39
2023-07-24T01:55:28.287Z,19.41
2023-07-24T01:55:40.287Z,19.40
2023-07-24T01:55:52.258Z,19.42
2023-07-24T01:56:04.440Z,19.45
2023-07-24T01:56:16.446Z,19.46
2023-07-24T01:56:28.637Z,19.39
2023-07-24T01:56:41.062Z,19.24
2023-07-24T01:56:53.429Z,19.27
2023-07-24T01:57:06.003Z,19.28
2023-07-24T01:57:18.038Z,19.20
2023-07-24T01:57:29.944Z,19.25
2023-07-24T01:57:41.897Z,19.22
2023-07-24T01:57:53.865Z,19.21
2023-07-24T01:58:05.899Z,19.16
2023-07-24T01:58:17.920Z,19.18
2023-07-24T01:58:29.962Z,19.14
2023-07-24T01:58:41.940Z,19.08
2023-07-24T01:58:53.891Z,19.01
2023-07-24T01:59:06.352Z,19.04
2023-07-24T01:59:18.382Z,19.07
2023-07-24T01:59:30.350Z,19.10
2023-07-24T01:59:42.396Z,19.12
2023-07-24T01:59:54.405Z,19.15
2023-07-24T02:00:07.089Z,19.18
2023-07-24T02:00:19.158Z,19.21
2023-07-24T02:00:31.359Z,19.23
2023-07-24T02:00:43.314Z,19.26
2023-07-24T02:00:58.029Z,19.28
2023-07-24T02:01:10.044Z,19.32
2023-07-24T02:01:22.091Z,19.35
2023-07-24T02:01:34.136Z,19.39
2023-07-24T02:01:46.166Z,19.42
2023-07-24T02:01:58.171Z,19.42
2023-07-24T02:02:10.245Z,19.44
2023-07-24T02:02:22.286Z,19.44
2023-07-24T02:02:34.353Z,19.48
2023-07-24T02:02:46.490Z,19.49
2023-07-24T02:02:58.663Z,19.48
2023-07-24T02:03:10.846Z,19.51
2023-07-24T02:03:23.014Z,19.56
2023-07-24T02:03:35.310Z,19.58
2023-07-24T02:03:47.412Z,19.54
2023-07-24T02:03:59.431Z,19.50
2023-07-24T02:04:11.376Z,19.46
2023-07-24T02:04:23.678Z,19.43
2023-07-24T02:04:35.686Z,19.47
2023-07-24T02:04:47.816Z,19.49
2023-07-24T02:04:59.741Z,19.51
2023-07-24T02:05:11.820Z,19.50
2023-07-24T02:05:23.836Z,19.52
2023-07-24T02:05:36.567Z,19.55
2023-07-24T02:05:52.324Z,19.54
2023-07-24T02:06:04.348Z,19.54
2023-07-24T02:06:16.268Z,19.55
2023-07-24T02:06:28.505Z,19.53
2023-07-24T02:06:40.867Z,19.56
2023-07-24T02:06:52.865Z,19.55
2023-07-24T02:07:05.302Z,19.50
2023-07-24T02:07:17.294Z,19.43
2023-07-24T02:07:29.291Z,19.37
2023-07-24T02:07:41.260Z,19.22
2023-07-24T02:07:53.245Z,19.15
2023-07-24T02:08:05.446Z,19.02
2023-07-24T02:08:17.386Z,18.88
2023-07-24T02:08:29.350Z,18.93
2023-07-24T02:08:42.036Z,18.91
2023-07-24T02:08:54.107Z,18.97
2023-07-24T02:09:06.087Z,19.03
2023-07-24T02:09:21.475Z,19.06
2023-07-24T02:09:33.469Z,19.09
2023-07-24T02:09:46.088Z,19.13
2023-07-24T02:09:58.303Z,19.15
2023-07-24T02:10:10.495Z,19.17
2023-07-24T02:10:22.415Z,19.20
2023-07-24T02:10:38.776Z,19.24
2023-07-24T02:10:53.359Z,19.28
2023-07-24T02:11:05.382Z,19.29
2023-07-24T02:11:17.320Z,19.33
2023-07-24T02:11:29.369Z,19.36
2023-07-24T02:11:41.400Z,19.39
2023-07-24T02:11:53.406Z,19.41
2023-07-24T02:12:06.006Z,19.45
2023-07-24T02:12:17.964Z,19.49
2023-07-24T02:12:29.914Z,19.50
2023-07-24T02:12:42.208Z,19.52
2023-07-24T02:12:54.204Z,19.53
2023-07-24T02:13:08.398Z,19.52
2023-07-24T02:13:20.377Z,19.54
2023-07-24T02:13:32.343Z,19.56
2023-07-24T02:13:47.964Z,19.60
2023-07-24T02:14:00.881Z,19.62
2023-07-24T02:14:14.786Z,19.61
2023-07-24T02:14:27.791Z,19.64
2023-07-24T02:14:39.765Z,19.62
2023-07-24T02:14:52.736Z,19.63
2023-07-24T02:15:05.106Z,19.62
2023-07-24T02:15:17.212Z,19.64
2023-07-24T02:15:29.164Z,19.65
2023-07-24T02:15:41.617Z,19.68
2023-07-24T02:15:54.960Z,19.69
2023-07-24T02:16:07.100Z,19.72
2023-07-24T02:16:19.128Z,19.70
2023-07-24T02:16:31.286Z,19.71
2023-07-24T02:16:43.492Z,19.70
2023-07-24T02:16:55.522Z,19.70
2023-07-24T02:17:07.547Z,19.71
2023-07-24T02:17:19.622Z,19.71
2023-07-24T02:17:31.739Z,19.70
2023-07-24T02:17:43.808Z,19.71
2023-07-24T02:17:55.868Z,19.73
2023-07-24T02:18:07.854Z,19.75
2023-07-24T02:18:19.853Z,19.77
2023-07-24T02:18:31.870Z,19.76
2023-07-24T02:18:44.732Z,19.77
2023-07-24T02:18:56.729Z,19.78
2023-07-24T02:19:08.702Z,19.75
2023-07-24T02:19:20.675Z,19.77
2023-07-24T02:19:32.686Z,19.79
2023-07-24T02:19:45.193Z,19.81
2023-07-24T02:19:57.135Z,19.79
2023-07-24T02:20:09.417Z,19.79
2023-07-24T02:20:21.364Z,19.80
2023-07-24T02:20:33.305Z,19.81
2023-07-24T02:20:52.271Z,19.83
2023-07-24T02:21:04.411Z,19.85
2023-07-24T02:21:16.381Z,19.87
2023-07-24T02:21:28.410Z,19.88
2023-07-24T02:21:41.852Z,19.89
2023-07-24T02:21:53.898Z,19.88
2023-07-24T02:22:05.846Z,19.89
2023-07-24T02:22:17.975Z,19.90
2023-07-24T02:22:29.916Z,19.92
2023-07-24T02:22:41.888Z,19.88
2023-07-24T02:22:53.830Z,19.86
2023-07-24T02:23:05.802Z,19.85
2023-07-24T02:23:17.812Z,19.86
2023-07-24T02:23:29.830Z,19.82
2023-07-24T02:23:41.757Z,19.80
2023-07-24T02:23:53.686Z,19.82
2023-07-24T02:24:05.754Z,19.81
2023-07-24T02:24:17.716Z,19.82
2023-07-24T02:24:29.681Z,19.81
2023-07-24T02:24:41.754Z,19.81
2023-07-24T02:24:53.802Z,19.75
2023-07-24T02:25:06.265Z,19.77
2023-07-24T02:25:18.305Z,19.76
2023-07-24T02:25:30.301Z,19.78
2023-07-24T02:25:42.413Z,19.79
2023-07-24T02:25:54.481Z,19.78
2023-07-24T02:26:06.500Z,19.75
2023-07-24T02:26:18.515Z,19.77
2023-07-24T02:26:30.797Z,19.79
2023-07-24T02:26:42.935Z,19.73
2023-07-24T02:26:54.957Z,19.73
2023-07-24T02:27:06.968Z,19.74
2023-07-24T02:27:29.671Z,19.71
2023-07-24T02:27:41.641Z,19.70
2023-07-24T02:27:53.607Z,19.70
2023-07-24T02:28:05.609Z,19.71
2023-07-24T02:28:17.528Z,19.74
2023-07-24T02:28:29.462Z,19.77
2023-07-24T02:28:41.444Z,19.77
2023-07-24T02:28:54.885Z,19.75
2023-07-24T02:29:06.867Z,19.74
2023-07-24T02:29:18.880Z,19.70
2023-07-24T02:29:30.869Z,19.69
2023-07-24T02:29:42.864Z,19.69
2023-07-24T02:29:55.494Z,19.68
2023-07-24T02:30:07.920Z,19.70
2023-07-24T02:30:19.871Z,19.67
2023-07-24T02:30:31.844Z,19.68
2023-07-24T02:30:43.928Z,19.68
2023-07-24T02:30:57.646Z,19.65
2023-07-24T02:31:09.686Z,19.69
2023-07-24T02:31:21.734Z,19.69
2023-07-24T02:31:34.556Z,19.69
2023-07-24T02:31:46.543Z,19.69
2023-07-24T02:31:59.461Z,19.62
2023-07-24T02:32:11.430Z,19.61
2023-07-24T02:32:23.465Z,19.61
2023-07-24T02:32:35.556Z,19.63
2023-07-24T02:32:47.545Z,19.62
2023-07-24T02:32:59.565Z,19.65
2023-07-24T02:33:11.530Z,19.64
2023-07-24T02:33:24.016Z,19.64
2023-07-24T02:33:35.993Z,19.65
2023-07-24T02:33:47.974Z,19.63
2023-07-24T02:33:59.914Z,19.59
2023-07-24T02:34:11.883Z,19.58
2023-07-24T02:34:27.001Z,19.59
2023-07-24T02:34:38.985Z,19.53
2023-07-24T02:34:52.334Z,19.55
2023-07-24T02:35:04.689Z,19.56
2023-07-24T02:35:16.721Z,19.55
2023-07-24T02:35:28.674Z,19.55
2023-07-24T02:35:41.905Z,19.57
2023-07-24T02:35:54.070Z,19.60
2023-07-24T02:36:06.035Z,19.63
2023-07-24T02:36:18.139Z,19.65
2023-07-24T02:36:30.351Z,19.66
2023-07-24T02:36:42.806Z,19.67
2023-07-24T02:36:54.893Z,19.69
2023-07-24T02:37:07.078Z,19.69
2023-07-24T02:37:19.932Z,19.70
2023-07-24T02:37:31.923Z,19.69
2023-07-24T02:37:43.916Z,19.71
2023-07-24T02:37:55.963Z,19.70
2023-07-24T02:38:08.628Z,19.71
2023-07-24T02:38:20.721Z,19.70
2023-07-24T02:38:32.837Z,19.67
2023-07-24T02:38:44.784Z,19.66
2023-07-24T02:38:56.782Z,19.66
2023-07-24T02:39:09.106Z,19.67
2023-07-24T02:39:21.514Z,19.66
2023-07-24T02:39:33.554Z,19.65
2023-07-24T02:39:46.020Z,19.66
2023-07-24T02:39:58.040Z,19.67
2023-07-24T02:40:10.745Z,19.68
2023-07-24T02:40:22.796Z,19.65
2023-07-24T02:40:36.407Z,19.64
2023-07-24T02:40:48.371Z,19.64
2023-07-24T02:41:00.699Z,19.64
2023-07-24T02:41:12.629Z,19.64
2023-07-24T02:41:24.725Z,19.67
2023-07-24T02:41:36.719Z,19.68
2023-07-24T02:41:49.759Z,19.69
2023-07-24T02:42:01.753Z,19.69
2023-07-24T02:42:13.729Z,19.72
2023-07-24T02:42:25.755Z,19.71
2023-07-24T02:42:37.793Z,19.70
2023-07-24T02:42:49.832Z,19.69
2023-07-24T02:43:02.105Z,19.68
2023-07-24T02:43:14.145Z,19.67
2023-07-24T02:43:26.144Z,19.68
2023-07-24T02:43:38.164Z,19.70
2023-07-24T02:43:50.132Z,19.67
2023-07-24T02:44:04.509Z,19.66
2023-07-24T02:44:16.442Z,19.68
2023-07-24T02:44:28.412Z,19.71
2023-07-24T02:44:40.446Z,19.72
2023-07-24T02:44:54.165Z,19.72
2023-07-24T02:45:11.805Z,19.71
2023-07-24T02:45:23.860Z,19.67
2023-07-24T02:45:36.151Z,19.65
2023-07-24T02:45:48.191Z,19.62
2023-07-24T02:46:03.739Z,19.65
2023-07-24T02:46:15.818Z,19.67
2023-07-24T02:46:28.209Z,19.68